Etusivu
METAR-TAF:

METAR-TAF

Lentoasemat :

Malakka, Malesia

Leveyspiiri: 02-16N, Pituuspiiri: 102-15E, korkeus merenpinnasta: 11 m

Tämänhetkinen sää

Tämä raportti tehtiin 39 minuuttia sitten, kello 07.00 UTC
Tuuli 5 kn pohjoisen/luoteesta, vaihdellen lännen/lounaan ja koillisen välillä
Lämpötila 28°C
Kosteus 79%
Ilmanpaine 1010 hPa
Näkyvyys 10 km tai enemmän
Muutamia pilviä 1700 ft:n korkeudessa, Cumulonimbus.

METAR: WMKM 260700Z 34005KT 250V050 9999 FEW017CB 28/24 Q1010

Aika: 15:39 (07:39 UTC)

Sääennuste

Tämä raportti tehtiin 2 tuntia ja 39 minuuttia sitten, kello 05.00 UTC
Ennuste voimassa 26. päivästä klo 06 UTC - 27. päivään klo 06 UTC
Tuuli 6 kn etelästä
Näkyvyys 10 km tai enemmän
Muutamia pilviä 1700 ft:n korkeudessa, Cumulonimbus.

TAF: WMKM 260500Z 2606/2706 19006KT 9999 FEW017CB

Säähavainnot ja -ennusteet yli 4000 lentoasemalta (METAR- ja TAF-raportit).

Käytössä olevat sääasemat on merkitty karttaan keltaisilla ja punaisilla pisteillä.

Aseta hiiri pisteen päälle nähdäksesi sääaseman nimen.

Klikkaa sitten nähdäksesi säähavainnot ja -ennusteet.

Kartan vaihtaminen: klikkaa mustalla rastilla varustettuja vihreitä pisteitä, niin voit zoomata sisään; viivalla varustettua vihreää pistettä, niin voit zoomata ulos tai vihreitä nuolia, niin pääset viereisille kartoille.


METAR-TAF: